sensor_id;sensor_type;location;lat;lon;timestamp;temperature;humidity
44851;DHT22;30583;48.714;9.386;2023-04-21T00:00:57;9.50;75.70
44851;DHT22;30583;48.714;9.386;2023-04-21T00:03:24;9.20;75.90
44851;DHT22;30583;48.714;9.386;2023-04-21T00:05:50;9.10;77.00
44851;DHT22;30583;48.714;9.386;2023-04-21T00:08:16;9.40;76.20
44851;DHT22;30583;48.714;9.386;2023-04-21T00:10:43;9.40;75.80
44851;DHT22;30583;48.714;9.386;2023-04-21T00:13:09;9.20;76.00
44851;DHT22;30583;48.714;9.386;2023-04-21T00:15:35;9.20;76.30
44851;DHT22;30583;48.714;9.386;2023-04-21T00:18:00;9.20;75.80
44851;DHT22;30583;48.714;9.386;2023-04-21T00:20:26;9.10;76.70
44851;DHT22;30583;48.714;9.386;2023-04-21T00:22:54;9.20;75.80
44851;DHT22;30583;48.714;9.386;2023-04-21T00:25:20;9.20;75.20
44851;DHT22;30583;48.714;9.386;2023-04-21T00:27:45;9.30;75.10
44851;DHT22;30583;48.714;9.386;2023-04-21T00:30:11;9.50;74.30
44851;DHT22;30583;48.714;9.386;2023-04-21T00:32:37;9.10;75.40
44851;DHT22;30583;48.714;9.386;2023-04-21T00:35:02;9.00;75.90
44851;DHT22;30583;48.714;9.386;2023-04-21T00:37:28;9.10;75.40
44851;DHT22;30583;48.714;9.386;2023-04-21T00:39:54;9.20;75.10
44851;DHT22;30583;48.714;9.386;2023-04-21T00:42:20;9.20;75.00
44851;DHT22;30583;48.714;9.386;2023-04-21T00:44:45;9.20;75.20
44851;DHT22;30583;48.714;9.386;2023-04-21T00:47:11;8.50;76.00
44851;DHT22;30583;48.714;9.386;2023-04-21T00:49:36;8.70;76.80
44851;DHT22;30583;48.714;9.386;2023-04-21T00:52:04;9.20;75.40
44851;DHT22;30583;48.714;9.386;2023-04-21T00:54:30;9.20;74.80
44851;DHT22;30583;48.714;9.386;2023-04-21T00:56:56;9.20;75.20
44851;DHT22;30583;48.714;9.386;2023-04-21T00:59:23;9.10;74.90
44851;DHT22;30583;48.714;9.386;2023-04-21T01:01:48;9.10;74.90
44851;DHT22;30583;48.714;9.386;2023-04-21T01:04:14;9.10;74.80
44851;DHT22;30583;48.714;9.386;2023-04-21T01:06:40;8.90;75.60
44851;DHT22;30583;48.714;9.386;2023-04-21T01:09:06;9.00;75.60
44851;DHT22;30583;48.714;9.386;2023-04-21T01:11:32;9.00;75.10
44851;DHT22;30583;48.714;9.386;2023-04-21T01:13:57;8.90;75.90
44851;DHT22;30583;48.714;9.386;2023-04-21T01:16:23;9.00;76.00
44851;DHT22;30583;48.714;9.386;2023-04-21T01:18:50;8.70;75.50
44851;DHT22;30583;48.714;9.386;2023-04-21T01:21:17;8.80;75.60
44851;DHT22;30583;48.714;9.386;2023-04-21T01:23:44;8.50;76.40
44851;DHT22;30583;48.714;9.386;2023-04-21T01:26:10;8.40;76.80
44851;DHT22;30583;48.714;9.386;2023-04-21T01:28:36;7.80;79.00
44851;DHT22;30583;48.714;9.386;2023-04-21T01:31:02;8.50;77.00
44851;DHT22;30583;48.714;9.386;2023-04-21T01:33:28;8.80;75.60
44851;DHT22;30583;48.714;9.386;2023-04-21T01:35:53;8.60;75.60
44851;DHT22;30583;48.714;9.386;2023-04-21T01:38:20;8.40;75.50
44851;DHT22;30583;48.714;9.386;2023-04-21T01:40:51;8.60;75.80
44851;DHT22;30583;48.714;9.386;2023-04-21T01:43:20;8.90;75.00
44851;DHT22;30583;48.714;9.386;2023-04-21T01:45:46;8.80;74.60
44851;DHT22;30583;48.714;9.386;2023-04-21T01:48:12;8.20;76.40
44851;DHT22;30583;48.714;9.386;2023-04-21T01:50:38;8.40;76.20
44851;DHT22;30583;48.714;9.386;2023-04-21T01:53:03;8.40;75.80
44851;DHT22;30583;48.714;9.386;2023-04-21T01:55:29;8.20;76.40
44851;DHT22;30583;48.714;9.386;2023-04-21T01:57:54;8.40;75.30
44851;DHT22;30583;48.714;9.386;2023-04-21T02:00:22;8.20;76.60
44851;DHT22;30583;48.714;9.386;2023-04-21T02:02:48;8.50;75.10
44851;DHT22;30583;48.714;9.386;2023-04-21T02:05:14;8.50;74.50
44851;DHT22;30583;48.714;9.386;2023-04-21T02:07:39;8.40;75.00
44851;DHT22;30583;48.714;9.386;2023-04-21T02:10:05;8.60;75.00
44851;DHT22;30583;48.714;9.386;2023-04-21T02:12:31;8.60;74.40
44851;DHT22;30583;48.714;9.386;2023-04-21T02:14:56;8.40;74.80
44851;DHT22;30583;48.714;9.386;2023-04-21T02:17:22;8.30;75.10
44851;DHT22;30583;48.714;9.386;2023-04-21T02:19:48;8.60;74.50
44851;DHT22;30583;48.714;9.386;2023-04-21T02:22:13;8.50;74.60
44851;DHT22;30583;48.714;9.386;2023-04-21T02:24:39;8.30;74.40
44851;DHT22;30583;48.714;9.386;2023-04-21T02:27:05;8.10;75.50
44851;DHT22;30583;48.714;9.386;2023-04-21T02:29:31;8.30;74.90
44851;DHT22;30583;48.714;9.386;2023-04-21T02:31:56;8.10;75.40
44851;DHT22;30583;48.714;9.386;2023-04-21T02:34:22;7.70;76.40
44851;DHT22;30583;48.714;9.386;2023-04-21T02:36:47;7.50;76.80
44851;DHT22;30583;48.714;9.386;2023-04-21T02:39:13;7.60;78.30
44851;DHT22;30583;48.714;9.386;2023-04-21T02:41:39;8.10;76.20
44851;DHT22;30583;48.714;9.386;2023-04-21T02:44:05;8.10;75.30
44851;DHT22;30583;48.714;9.386;2023-04-21T02:46:30;8.20;74.80
44851;DHT22;30583;48.714;9.386;2023-04-21T02:48:56;8.40;74.20
44851;DHT22;30583;48.714;9.386;2023-04-21T02:51:22;8.30;74.50
44851;DHT22;30583;48.714;9.386;2023-04-21T02:53:47;8.20;74.70
44851;DHT22;30583;48.714;9.386;2023-04-21T02:56:14;8.10;74.80
44851;DHT22;30583;48.714;9.386;2023-04-21T02:58:40;8.30;74.40
44851;DHT22;30583;48.714;9.386;2023-04-21T03:01:05;8.20;74.40
44851;DHT22;30583;48.714;9.386;2023-04-21T03:03:32;8.00;74.90
44851;DHT22;30583;48.714;9.386;2023-04-21T03:05:59;8.30;74.70
44851;DHT22;30583;48.714;9.386;2023-04-21T03:08:25;8.20;74.80
44851;DHT22;30583;48.714;9.386;2023-04-21T03:10:50;8.20;74.60
44851;DHT22;30583;48.714;9.386;2023-04-21T03:13:16;8.20;74.10
44851;DHT22;30583;48.714;9.386;2023-04-21T03:15:42;7.60;74.30
44851;DHT22;30583;48.714;9.386;2023-04-21T03:18:08;7.50;76.00
44851;DHT22;30583;48.714;9.386;2023-04-21T03:20:33;7.30;77.10
44851;DHT22;30583;48.714;9.386;2023-04-21T03:22:59;6.80;77.70
44851;DHT22;30583;48.714;9.386;2023-04-21T03:25:25;6.60;79.70
44851;DHT22;30583;48.714;9.386;2023-04-21T03:27:52;7.40;77.90
44851;DHT22;30583;48.714;9.386;2023-04-21T03:30:18;7.80;75.70
44851;DHT22;30583;48.714;9.386;2023-04-21T03:32:44;7.80;75.00
44851;DHT22;30583;48.714;9.386;2023-04-21T03:35:10;7.80;75.50
44851;DHT22;30583;48.714;9.386;2023-04-21T03:37:35;7.90;75.30
44851;DHT22;30583;48.714;9.386;2023-04-21T03:40:01;8.30;74.50
44851;DHT22;30583;48.714;9.386;2023-04-21T03:42:27;7.80;75.10
44851;DHT22;30583;48.714;9.386;2023-04-21T03:44:54;8.10;74.90
44851;DHT22;30583;48.714;9.386;2023-04-21T03:47:20;8.30;74.20
44851;DHT22;30583;48.714;9.386;2023-04-21T03:49:46;8.10;74.30
44851;DHT22;30583;48.714;9.386;2023-04-21T03:52:11;7.90;74.90
44851;DHT22;30583;48.714;9.386;2023-04-21T03:54:37;7.70;75.60
44851;DHT22;30583;48.714;9.386;2023-04-21T03:57:02;8.00;75.30
44851;DHT22;30583;48.714;9.386;2023-04-21T03:59:28;7.90;75.10
44851;DHT22;30583;48.714;9.386;2023-04-21T04:01:54;7.90;75.60
44851;DHT22;30583;48.714;9.386;2023-04-21T04:04:19;7.20;76.30
44851;DHT22;30583;48.714;9.386;2023-04-21T04:06:45;6.90;77.20
44851;DHT22;30583;48.714;9.386;2023-04-21T04:09:11;6.20;79.10
44851;DHT22;30583;48.714;9.386;2023-04-21T04:11:36;6.30;79.90
44851;DHT22;30583;48.714;9.386;2023-04-21T04:14:02;6.80;80.10
44851;DHT22;30583;48.714;9.386;2023-04-21T04:16:27;6.70;79.20
44851;DHT22;30583;48.714;9.386;2023-04-21T04:18:53;7.10;78.10
44851;DHT22;30583;48.714;9.386;2023-04-21T04:21:19;7.10;77.90
44851;DHT22;30583;48.714;9.386;2023-04-21T04:23:45;7.20;77.10
44851;DHT22;30583;48.714;9.386;2023-04-21T04:26:11;7.10;77.50
44851;DHT22;30583;48.714;9.386;2023-04-21T04:28:36;7.30;77.00
44851;DHT22;30583;48.714;9.386;2023-04-21T04:31:02;7.20;77.40
44851;DHT22;30583;48.714;9.386;2023-04-21T04:33:28;7.30;77.20
44851;DHT22;30583;48.714;9.386;2023-04-21T04:35:53;7.40;77.40
44851;DHT22;30583;48.714;9.386;2023-04-21T04:38:19;7.30;76.70
44851;DHT22;30583;48.714;9.386;2023-04-21T04:40:52;6.70;78.40
44851;DHT22;30583;48.714;9.386;2023-04-21T04:43:18;6.60;79.20
44851;DHT22;30583;48.714;9.386;2023-04-21T04:45:43;6.20;80.00
44851;DHT22;30583;48.714;9.386;2023-04-21T04:48:09;6.60;80.70
44851;DHT22;30583;48.714;9.386;2023-04-21T04:50:35;7.10;80.10
44851;DHT22;30583;48.714;9.386;2023-04-21T04:53:01;7.20;78.10
44851;DHT22;30583;48.714;9.386;2023-04-21T04:55:26;7.30;79.70
44851;DHT22;30583;48.714;9.386;2023-04-21T04:57:52;7.80;77.40
44851;DHT22;30583;48.714;9.386;2023-04-21T05:00:18;8.30;76.90
44851;DHT22;30583;48.714;9.386;2023-04-21T05:02:43;8.70;74.80
44851;DHT22;30583;48.714;9.386;2023-04-21T05:05:09;8.40;75.00
44851;DHT22;30583;48.714;9.386;2023-04-21T05:07:35;8.20;74.60
44851;DHT22;30583;48.714;9.386;2023-04-21T05:10:01;7.90;77.00
44851;DHT22;30583;48.714;9.386;2023-04-21T05:12:29;8.00;76.90
44851;DHT22;30583;48.714;9.386;2023-04-21T05:14:54;7.90;78.00
44851;DHT22;30583;48.714;9.386;2023-04-21T05:17:20;7.60;76.30
44851;DHT22;30583;48.714;9.386;2023-04-21T05:19:46;7.60;77.90
44851;DHT22;30583;48.714;9.386;2023-04-21T05:22:11;8.60;75.80
44851;DHT22;30583;48.714;9.386;2023-04-21T05:24:37;8.90;75.20
44851;DHT22;30583;48.714;9.386;2023-04-21T05:27:05;8.90;74.20
44851;DHT22;30583;48.714;9.386;2023-04-21T05:29:30;8.90;73.90
44851;DHT22;30583;48.714;9.386;2023-04-21T05:31:58;9.90;75.20
44851;DHT22;30583;48.714;9.386;2023-04-21T05:34:24;9.90;73.40
44851;DHT22;30583;48.714;9.386;2023-04-21T05:36:50;10.40;72.80
44851;DHT22;30583;48.714;9.386;2023-04-21T05:39:16;10.20;72.20
44851;DHT22;30583;48.714;9.386;2023-04-21T05:41:42;9.90;72.60
44851;DHT22;30583;48.714;9.386;2023-04-21T05:44:08;8.90;72.90
44851;DHT22;30583;48.714;9.386;2023-04-21T05:46:33;8.40;75.20
44851;DHT22;30583;48.714;9.386;2023-04-21T05:49:00;8.60;75.90
44851;DHT22;30583;48.714;9.386;2023-04-21T05:51:28;8.20;75.70
44851;DHT22;30583;48.714;9.386;2023-04-21T05:53:54;8.30;75.60
44851;DHT22;30583;48.714;9.386;2023-04-21T05:56:20;8.30;75.80
44851;DHT22;30583;48.714;9.386;2023-04-21T05:58:46;8.20;75.60
44851;DHT22;30583;48.714;9.386;2023-04-21T06:01:12;8.00;75.60
44851;DHT22;30583;48.714;9.386;2023-04-21T06:03:37;7.80;75.90
44851;DHT22;30583;48.714;9.386;2023-04-21T06:06:04;7.60;76.60
44851;DHT22;30583;48.714;9.386;2023-04-21T06:08:30;7.40;76.60
44851;DHT22;30583;48.714;9.386;2023-04-21T06:10:56;7.70;76.60
44851;DHT22;30583;48.714;9.386;2023-04-21T06:13:21;7.30;77.20
44851;DHT22;30583;48.714;9.386;2023-04-21T06:15:47;7.20;78.20
44851;DHT22;30583;48.714;9.386;2023-04-21T06:18:12;7.30;78.00
44851;DHT22;30583;48.714;9.386;2023-04-21T06:20:38;7.00;78.10
44851;DHT22;30583;48.714;9.386;2023-04-21T06:23:05;7.20;78.90
44851;DHT22;30583;48.714;9.386;2023-04-21T06:25:31;7.30;78.70
44851;DHT22;30583;48.714;9.386;2023-04-21T06:27:56;7.40;78.60
44851;DHT22;30583;48.714;9.386;2023-04-21T06:30:22;7.60;78.10
44851;DHT22;30583;48.714;9.386;2023-04-21T06:32:47;7.70;77.90
44851;DHT22;30583;48.714;9.386;2023-04-21T06:35:13;8.20;78.00
44851;DHT22;30583;48.714;9.386;2023-04-21T06:37:40;8.60;75.90
44851;DHT22;30583;48.714;9.386;2023-04-21T06:40:06;8.30;75.60
44851;DHT22;30583;48.714;9.386;2023-04-21T06:42:32;8.00;77.80
44851;DHT22;30583;48.714;9.386;2023-04-21T06:44:58;8.30;77.10
44851;DHT22;30583;48.714;9.386;2023-04-21T06:47:23;8.00;78.60
44851;DHT22;30583;48.714;9.386;2023-04-21T06:49:49;8.30;79.40
44851;DHT22;30583;48.714;9.386;2023-04-21T06:52:14;9.20;77.90
44851;DHT22;30583;48.714;9.386;2023-04-21T06:54:40;10.10;75.00
44851;DHT22;30583;48.714;9.386;2023-04-21T06:57:05;10.20;74.00
44851;DHT22;30583;48.714;9.386;2023-04-21T06:59:31;10.10;73.40
44851;DHT22;30583;48.714;9.386;2023-04-21T07:01:58;10.30;73.60
44851;DHT22;30583;48.714;9.386;2023-04-21T07:04:24;10.60;73.50
44851;DHT22;30583;48.714;9.386;2023-04-21T07:06:54;10.50;71.50
44851;DHT22;30583;48.714;9.386;2023-04-21T07:09:20;9.80;74.00
44851;DHT22;30583;48.714;9.386;2023-04-21T07:11:46;10.30;73.60
44851;DHT22;30583;48.714;9.386;2023-04-21T07:14:11;10.70;72.90
44851;DHT22;30583;48.714;9.386;2023-04-21T07:16:37;10.90;71.90
44851;DHT22;30583;48.714;9.386;2023-04-21T07:19:02;10.60;71.50
44851;DHT22;30583;48.714;9.386;2023-04-21T07:21:28;10.40;73.10
44851;DHT22;30583;48.714;9.386;2023-04-21T07:24:01;10.00;72.70
44851;DHT22;30583;48.714;9.386;2023-04-21T07:26:26;9.50;74.30
44851;DHT22;30583;48.714;9.386;2023-04-21T07:28:52;9.70;74.50
44851;DHT22;30583;48.714;9.386;2023-04-21T07:31:19;9.60;74.30
44851;DHT22;30583;48.714;9.386;2023-04-21T07:33:45;10.20;74.80
44851;DHT22;30583;48.714;9.386;2023-04-21T07:36:11;10.90;73.00
44851;DHT22;30583;48.714;9.386;2023-04-21T07:38:37;11.20;71.70
44851;DHT22;30583;48.714;9.386;2023-04-21T07:41:03;11.40;71.10
44851;DHT22;30583;48.714;9.386;2023-04-21T07:43:29;11.50;70.70
44851;DHT22;30583;48.714;9.386;2023-04-21T07:45:56;11.70;70.30
44851;DHT22;30583;48.714;9.386;2023-04-21T07:48:22;11.90;70.30
44851;DHT22;30583;48.714;9.386;2023-04-21T07:50:48;11.80;70.10
44851;DHT22;30583;48.714;9.386;2023-04-21T07:53:14;10.90;69.70
44851;DHT22;30583;48.714;9.386;2023-04-21T07:55:40;10.60;73.30
44851;DHT22;30583;48.714;9.386;2023-04-21T07:58:06;10.10;73.70
44851;DHT22;30583;48.714;9.386;2023-04-21T08:00:31;9.70;75.90
44851;DHT22;30583;48.714;9.386;2023-04-21T08:02:57;9.00;78.80
44851;DHT22;30583;48.714;9.386;2023-04-21T08:05:23;9.60;77.90
44851;DHT22;30583;48.714;9.386;2023-04-21T08:07:48;10.20;76.10
44851;DHT22;30583;48.714;9.386;2023-04-21T08:10:14;9.70;76.70
44851;DHT22;30583;48.714;9.386;2023-04-21T08:12:40;10.20;75.90
44851;DHT22;30583;48.714;9.386;2023-04-21T08:15:06;10.10;74.90
44851;DHT22;30583;48.714;9.386;2023-04-21T08:17:33;10.10;75.30
44851;DHT22;30583;48.714;9.386;2023-04-21T08:19:59;10.70;74.40
44851;DHT22;30583;48.714;9.386;2023-04-21T08:22:25;10.50;74.50
44851;DHT22;30583;48.714;9.386;2023-04-21T08:24:51;10.50;74.80
44851;DHT22;30583;48.714;9.386;2023-04-21T08:27:16;10.30;74.90
44851;DHT22;30583;48.714;9.386;2023-04-21T08:29:42;11.20;73.80
44851;DHT22;30583;48.714;9.386;2023-04-21T08:32:07;11.00;72.40
44851;DHT22;30583;48.714;9.386;2023-04-21T08:34:33;11.30;72.70
44851;DHT22;30583;48.714;9.386;2023-04-21T08:36:59;11.20;74.20
44851;DHT22;30583;48.714;9.386;2023-04-21T08:39:24;12.30;70.60
44851;DHT22;30583;48.714;9.386;2023-04-21T08:41:51;12.60;69.10
44851;DHT22;30583;48.714;9.386;2023-04-21T08:44:16;12.70;69.20
44851;DHT22;30583;48.714;9.386;2023-04-21T08:46:44;12.60;69.00
44851;DHT22;30583;48.714;9.386;2023-04-21T08:49:17;12.90;68.70
44851;DHT22;30583;48.714;9.386;2023-04-21T08:51:44;12.60;68.30
44851;DHT22;30583;48.714;9.386;2023-04-21T08:54:10;12.70;68.90
44851;DHT22;30583;48.714;9.386;2023-04-21T08:56:36;12.40;69.00
44851;DHT22;30583;48.714;9.386;2023-04-21T08:59:01;12.10;70.50
44851;DHT22;30583;48.714;9.386;2023-04-21T09:01:27;12.40;70.90
44851;DHT22;30583;48.714;9.386;2023-04-21T09:03:52;11.50;72.80
44851;DHT22;30583;48.714;9.386;2023-04-21T09:06:18;12.40;71.40
44851;DHT22;30583;48.714;9.386;2023-04-21T09:08:52;12.70;69.80
44851;DHT22;30583;48.714;9.386;2023-04-21T09:11:20;12.60;69.20
44851;DHT22;30583;48.714;9.386;2023-04-21T09:13:46;12.60;70.00
44851;DHT22;30583;48.714;9.386;2023-04-21T09:16:19;13.20;68.10
44851;DHT22;30583;48.714;9.386;2023-04-21T09:18:45;13.80;66.00
44851;DHT22;30583;48.714;9.386;2023-04-21T09:21:17;13.50;66.40
44851;DHT22;30583;48.714;9.386;2023-04-21T09:23:47;12.90;66.80
44851;DHT22;30583;48.714;9.386;2023-04-21T09:26:15;13.30;67.60
44851;DHT22;30583;48.714;9.386;2023-04-21T09:28:47;13.60;66.20
44851;DHT22;30583;48.714;9.386;2023-04-21T09:33:47;13.70;66.20
44851;DHT22;30583;48.714;9.386;2023-04-21T09:36:24;13.30;66.50
44851;DHT22;30583;48.714;9.386;2023-04-21T09:41:19;12.90;67.50
44851;DHT22;30583;48.714;9.386;2023-04-21T09:43:46;13.70;67.40
44851;DHT22;30583;48.714;9.386;2023-04-21T09:46:16;13.60;65.80
44851;DHT22;30583;48.714;9.386;2023-04-21T09:48:44;13.30;66.00
44851;DHT22;30583;48.714;9.386;2023-04-21T09:51:14;13.50;66.00
44851;DHT22;30583;48.714;9.386;2023-04-21T09:53:41;13.60;65.40
44851;DHT22;30583;48.714;9.386;2023-04-21T09:56:11;13.60;65.80
44851;DHT22;30583;48.714;9.386;2023-04-21T09:58:52;13.80;64.60
44851;DHT22;30583;48.714;9.386;2023-04-21T10:01:18;13.80;65.30
44851;DHT22;30583;48.714;9.386;2023-04-21T10:03:47;13.90;64.60
44851;DHT22;30583;48.714;9.386;2023-04-21T10:06:13;14.20;64.90
44851;DHT22;30583;48.714;9.386;2023-04-21T10:08:39;14.40;66.90
44851;DHT22;30583;48.714;9.386;2023-04-21T10:11:06;14.30;64.30
44851;DHT22;30583;48.714;9.386;2023-04-21T10:13:32;14.90;64.20
44851;DHT22;30583;48.714;9.386;2023-04-21T10:16:08;15.00;62.10
44851;DHT22;30583;48.714;9.386;2023-04-21T10:18:41;15.00;62.40
44851;DHT22;30583;48.714;9.386;2023-04-21T10:21:11;14.90;64.10
44851;DHT22;30583;48.714;9.386;2023-04-21T10:23:52;15.00;64.30
44851;DHT22;30583;48.714;9.386;2023-04-21T10:26:24;15.20;63.70
44851;DHT22;30583;48.714;9.386;2023-04-21T10:29:02;15.10;63.80
44851;DHT22;30583;48.714;9.386;2023-04-21T10:31:35;15.00;63.40
44851;DHT22;30583;48.714;9.386;2023-04-21T10:36:34;15.20;63.90
44851;DHT22;30583;48.714;9.386;2023-04-21T10:39:01;15.20;63.70
44851;DHT22;30583;48.714;9.386;2023-04-21T10:41:33;15.60;63.30
44851;DHT22;30583;48.714;9.386;2023-04-21T10:46:39;15.40;63.40
44851;DHT22;30583;48.714;9.386;2023-04-21T10:51:32;16.00;61.60
44851;DHT22;30583;48.714;9.386;2023-04-21T10:53:58;16.70;60.90
44851;DHT22;30583;48.714;9.386;2023-04-21T10:56:24;16.60;58.90
44851;DHT22;30583;48.714;9.386;2023-04-21T10:58:51;16.70;61.50
44851;DHT22;30583;48.714;9.386;2023-04-21T11:01:17;16.90;59.70
44851;DHT22;30583;48.714;9.386;2023-04-21T11:03:43;16.40;59.90
44851;DHT22;30583;48.714;9.386;2023-04-21T11:06:15;16.40;60.80
44851;DHT22;30583;48.714;9.386;2023-04-21T11:08:55;17.20;58.20
44851;DHT22;30583;48.714;9.386;2023-04-21T11:11:22;17.30;56.50
44851;DHT22;30583;48.714;9.386;2023-04-21T11:13:52;18.40;55.70
44851;DHT22;30583;48.714;9.386;2023-04-21T11:16:19;19.10;54.20
44851;DHT22;30583;48.714;9.386;2023-04-21T11:18:45;18.50;53.70
44851;DHT22;30583;48.714;9.386;2023-04-21T11:21:15;17.30;57.90
44851;DHT22;30583;48.714;9.386;2023-04-21T11:23:51;17.40;56.90
44851;DHT22;30583;48.714;9.386;2023-04-21T11:26:17;17.20;56.90
44851;DHT22;30583;48.714;9.386;2023-04-21T11:28:46;17.90;56.20
44851;DHT22;30583;48.714;9.386;2023-04-21T11:31:14;18.40;55.90
44851;DHT22;30583;48.714;9.386;2023-04-21T11:33:39;18.40;54.30
44851;DHT22;30583;48.714;9.386;2023-04-21T11:36:06;18.00;56.20
44851;DHT22;30583;48.714;9.386;2023-04-21T11:38:39;18.40;55.30
44851;DHT22;30583;48.714;9.386;2023-04-21T11:41:06;18.40;55.70
44851;DHT22;30583;48.714;9.386;2023-04-21T11:43:31;18.70;54.40
44851;DHT22;30583;48.714;9.386;2023-04-21T11:46:29;17.90;54.50
44851;DHT22;30583;48.714;9.386;2023-04-21T11:49:02;17.70;54.50
44851;DHT22;30583;48.714;9.386;2023-04-21T11:53:58;19.50;52.40
44851;DHT22;30583;48.714;9.386;2023-04-21T11:56:24;18.20;53.50
44851;DHT22;30583;48.714;9.386;2023-04-21T11:58:51;18.20;55.30
44851;DHT22;30583;48.714;9.386;2023-04-21T12:01:20;18.00;55.40
44851;DHT22;30583;48.714;9.386;2023-04-21T12:03:50;18.00;55.50
44851;DHT22;30583;48.714;9.386;2023-04-21T12:06:23;18.70;53.70
44851;DHT22;30583;48.714;9.386;2023-04-21T12:09:03;18.70;54.30
44851;DHT22;30583;48.714;9.386;2023-04-21T12:11:29;18.20;54.70
44851;DHT22;30583;48.714;9.386;2023-04-21T12:13:56;18.10;54.40
44851;DHT22;30583;48.714;9.386;2023-04-21T12:16:24;18.90;53.40
44851;DHT22;30583;48.714;9.386;2023-04-21T12:18:51;18.70;52.80
44851;DHT22;30583;48.714;9.386;2023-04-21T12:21:17;18.60;54.30
44851;DHT22;30583;48.714;9.386;2023-04-21T12:23:43;18.70;52.80
44851;DHT22;30583;48.714;9.386;2023-04-21T12:26:09;19.20;52.10
44851;DHT22;30583;48.714;9.386;2023-04-21T12:28:36;19.70;52.20
44851;DHT22;30583;48.714;9.386;2023-04-21T12:31:02;19.30;51.00
44851;DHT22;30583;48.714;9.386;2023-04-21T12:33:27;19.50;52.40
44851;DHT22;30583;48.714;9.386;2023-04-21T12:35:53;19.70;51.40
44851;DHT22;30583;48.714;9.386;2023-04-21T12:38:18;19.20;51.00
44851;DHT22;30583;48.714;9.386;2023-04-21T12:40:44;19.20;51.60
44851;DHT22;30583;48.714;9.386;2023-04-21T12:43:10;19.30;50.80
44851;DHT22;30583;48.714;9.386;2023-04-21T12:45:35;18.90;52.10
44851;DHT22;30583;48.714;9.386;2023-04-21T12:48:01;18.80;51.60
44851;DHT22;30583;48.714;9.386;2023-04-21T12:50:28;19.20;52.00
44851;DHT22;30583;48.714;9.386;2023-04-21T12:52:54;18.80;51.30
44851;DHT22;30583;48.714;9.386;2023-04-21T12:55:21;19.70;49.30
44851;DHT22;30583;48.714;9.386;2023-04-21T12:57:47;19.90;49.20
44851;DHT22;30583;48.714;9.386;2023-04-21T13:00:14;20.20;50.20
44851;DHT22;30583;48.714;9.386;2023-04-21T13:02:40;20.40;48.00
44851;DHT22;30583;48.714;9.386;2023-04-21T13:05:06;20.10;47.10
44851;DHT22;30583;48.714;9.386;2023-04-21T13:07:34;20.20;50.20
44851;DHT22;30583;48.714;9.386;2023-04-21T13:09:59;19.70;48.30
44851;DHT22;30583;48.714;9.386;2023-04-21T13:12:25;20.20;48.10
44851;DHT22;30583;48.714;9.386;2023-04-21T13:14:51;19.90;46.50
44851;DHT22;30583;48.714;9.386;2023-04-21T13:17:16;20.20;47.40
44851;DHT22;30583;48.714;9.386;2023-04-21T13:19:42;20.50;46.00
44851;DHT22;30583;48.714;9.386;2023-04-21T13:22:07;20.30;45.10
44851;DHT22;30583;48.714;9.386;2023-04-21T13:24:33;20.00;48.00
44851;DHT22;30583;48.714;9.386;2023-04-21T13:26:59;20.30;47.50
44851;DHT22;30583;48.714;9.386;2023-04-21T13:29:27;20.30;46.90
44851;DHT22;30583;48.714;9.386;2023-04-21T13:31:59;20.80;46.90
44851;DHT22;30583;48.714;9.386;2023-04-21T13:34:25;20.70;45.90
44851;DHT22;30583;48.714;9.386;2023-04-21T13:36:52;20.30;46.70
44851;DHT22;30583;48.714;9.386;2023-04-21T13:39:17;20.50;46.40
44851;DHT22;30583;48.714;9.386;2023-04-21T13:41:44;20.20;46.90
44851;DHT22;30583;48.714;9.386;2023-04-21T13:44:09;20.80;47.00
44851;DHT22;30583;48.714;9.386;2023-04-21T13:46:35;21.00;46.50
44851;DHT22;30583;48.714;9.386;2023-04-21T13:49:01;20.50;46.50
44851;DHT22;30583;48.714;9.386;2023-04-21T13:51:27;20.70;45.90
44851;DHT22;30583;48.714;9.386;2023-04-21T13:53:54;21.20;46.90
44851;DHT22;30583;48.714;9.386;2023-04-21T13:56:20;21.30;44.70
44851;DHT22;30583;48.714;9.386;2023-04-21T13:58:46;20.90;46.50
44851;DHT22;30583;48.714;9.386;2023-04-21T14:01:12;20.70;45.90
44851;DHT22;30583;48.714;9.386;2023-04-21T14:03:39;21.10;46.70
44851;DHT22;30583;48.714;9.386;2023-04-21T14:06:04;20.90;45.70
44851;DHT22;30583;48.714;9.386;2023-04-21T14:08:30;21.30;46.40
44851;DHT22;30583;48.714;9.386;2023-04-21T14:10:56;20.70;46.20
44851;DHT22;30583;48.714;9.386;2023-04-21T14:13:22;21.20;45.70
44851;DHT22;30583;48.714;9.386;2023-04-21T14:15:48;21.50;44.70
44851;DHT22;30583;48.714;9.386;2023-04-21T14:18:14;21.60;44.10
44851;DHT22;30583;48.714;9.386;2023-04-21T14:20:40;21.20;46.00
44851;DHT22;30583;48.714;9.386;2023-04-21T14:23:05;21.40;45.40
44851;DHT22;30583;48.714;9.386;2023-04-21T14:25:31;21.20;45.30
44851;DHT22;30583;48.714;9.386;2023-04-21T14:27:56;21.40;46.10
44851;DHT22;30583;48.714;9.386;2023-04-21T14:30:22;21.80;44.90
44851;DHT22;30583;48.714;9.386;2023-04-21T14:32:47;21.50;45.00
44851;DHT22;30583;48.714;9.386;2023-04-21T14:35:13;21.20;45.10
44851;DHT22;30583;48.714;9.386;2023-04-21T14:37:40;21.10;45.60
44851;DHT22;30583;48.714;9.386;2023-04-21T14:40:08;21.20;47.00
44851;DHT22;30583;48.714;9.386;2023-04-21T14:42:34;21.80;45.50
44851;DHT22;30583;48.714;9.386;2023-04-21T14:45:00;21.20;46.00
44851;DHT22;30583;48.714;9.386;2023-04-21T14:47:26;21.20;46.30
44851;DHT22;30583;48.714;9.386;2023-04-21T14:49:52;20.50;47.90
44851;DHT22;30583;48.714;9.386;2023-04-21T14:52:19;21.20;46.10
44851;DHT22;30583;48.714;9.386;2023-04-21T14:54:45;21.50;45.20
44851;DHT22;30583;48.714;9.386;2023-04-21T14:57:10;21.20;45.70
44851;DHT22;30583;48.714;9.386;2023-04-21T14:59:36;21.20;46.50
44851;DHT22;30583;48.714;9.386;2023-04-21T15:02:02;21.10;46.80
44851;DHT22;30583;48.714;9.386;2023-04-21T15:04:28;21.10;46.70
44851;DHT22;30583;48.714;9.386;2023-04-21T15:06:54;21.00;46.50
44851;DHT22;30583;48.714;9.386;2023-04-21T15:09:20;21.10;47.20
44851;DHT22;30583;48.714;9.386;2023-04-21T15:11:45;20.80;47.70
44851;DHT22;30583;48.714;9.386;2023-04-21T15:14:11;21.00;47.20
44851;DHT22;30583;48.714;9.386;2023-04-21T15:16:37;20.80;47.40
44851;DHT22;30583;48.714;9.386;2023-04-21T15:19:02;21.00;48.10
44851;DHT22;30583;48.714;9.386;2023-04-21T15:21:28;21.10;47.40
44851;DHT22;30583;48.714;9.386;2023-04-21T15:23:54;21.00;49.10
44851;DHT22;30583;48.714;9.386;2023-04-21T15:26:20;21.00;47.40
44851;DHT22;30583;48.714;9.386;2023-04-21T15:28:47;20.40;49.30
44851;DHT22;30583;48.714;9.386;2023-04-21T15:31:12;20.60;48.80
44851;DHT22;30583;48.714;9.386;2023-04-21T15:33:38;20.80;48.80
44851;DHT22;30583;48.714;9.386;2023-04-21T15:36:04;20.80;48.30
44851;DHT22;30583;48.714;9.386;2023-04-21T15:38:30;20.70;49.00
44851;DHT22;30583;48.714;9.386;2023-04-21T15:40:55;20.90;48.40
44851;DHT22;30583;48.714;9.386;2023-04-21T15:43:21;20.80;49.50
44851;DHT22;30583;48.714;9.386;2023-04-21T15:45:47;20.50;49.10
44851;DHT22;30583;48.714;9.386;2023-04-21T15:48:12;20.80;48.80